Time;durP1;ratioP1;P1;durP2;ratioP2;P2;SDS_P1;SDS_P2;PMS_P1;PMS_P2;Temp;Humidity;BMP_temperature;BMP_pressure;BME280_temperature;BME280_humidity;BME280_pressure;Samples;Min_cycle;Max_cycle;Signal;HPM_P1;HPM_P2
2021/07/24 00:01:58;;;;;;;11.25;9.52;;;;;;;24.81;45.91;93906.25;4986856;28;20042;-72
2021/07/24 00:04:23;;;;;;;11.00;9.15;;;;;;;24.78;46.04;93906.97;4983758;28;20509;-71
2021/07/24 00:06:49;;;;;;;10.75;9.45;;;;;;;24.69;45.96;93895.72;4994005;28;20038;-71
2021/07/24 00:09:15;;;;;;;13.55;10.57;;;;;;;24.69;45.83;93910.00;4985437;28;20053;-72
2021/07/24 00:11:41;;;;;;;11.02;9.93;;;;;;;24.69;45.96;93903.81;4985796;28;20559;-72
2021/07/24 00:14:06;;;;;;;11.18;9.95;;;;;;;24.49;46.48;93895.94;4985727;28;20038;-71
2021/07/24 00:16:31;;;;;;;14.93;10.68;;;;;;;24.41;46.59;93905.16;4985773;28;20037;-71
2021/07/24 00:18:57;;;;;;;10.68;9.13;;;;;;;24.19;46.78;93886.44;4987358;28;20508;-72
2021/07/24 00:21:22;;;;;;;11.75;10.00;;;;;;;24.31;46.76;93908.53;4984554;28;20387;-73
2021/07/24 00:23:48;;;;;;;11.07;9.70;;;;;;;24.23;46.60;93903.44;4983912;28;20022;-71
2021/07/24 00:26:14;;;;;;;10.95;9.32;;;;;;;24.22;46.92;93902.66;4983183;28;20076;-72
2021/07/24 00:28:40;;;;;;;13.57;10.48;;;;;;;24.16;46.90;93906.81;4984506;28;20038;-72
2021/07/24 00:31:06;;;;;;;13.15;10.18;;;;;;;24.03;46.99;93894.72;4983684;28;20292;-71
2021/07/24 00:33:31;;;;;;;11.70;10.25;;;;;;;23.98;47.45;93897.75;4984884;28;20552;-71
2021/07/24 00:35:57;;;;;;;11.52;9.98;;;;;;;23.85;47.16;93861.41;4985764;28;20065;-72
2021/07/24 00:38:24;;;;;;;10.45;9.23;;;;;;;24.14;46.85;93899.06;4986644;28;20519;-71
2021/07/24 00:40:54;;;;;;;13.27;9.18;;;;;;;24.13;47.01;93908.34;4985569;28;20599;-71
2021/07/24 00:43:24;;;;;;;11.93;10.13;;;;;;;24.14;46.95;93896.38;4986974;28;20547;-72
2021/07/24 00:45:53;;;;;;;10.98;9.88;;;;;;;24.16;47.11;93898.72;4985531;28;20073;-71
2021/07/24 00:48:23;;;;;;;11.35;10.05;;;;;;;24.13;47.17;93897.53;4985574;28;20446;-71
2021/07/24 00:50:50;;;;;;;12.27;10.07;;;;;;;24.11;47.23;93894.44;4985905;28;20080;-72
2021/07/24 00:53:33;;;;;;;11.70;10.10;;;;;;;24.08;47.38;93889.00;4985687;28;20037;-72
2021/07/24 00:55:59;;;;;;;10.65;9.32;;;;;;;23.90;47.42;93888.03;4982402;28;20054;-72
2021/07/24 00:58:27;;;;;;;11.60;10.45;;;;;;;23.94;47.77;93886.16;4984967;28;20627;-72
2021/07/24 01:00:53;;;;;;;12.80;9.57;;;;;;;23.98;47.46;93886.97;4985181;28;20394;-72
2021/07/24 01:03:19;;;;;;;12.32;10.05;;;;;;;23.82;48.03;93887.19;4986457;28;20508;-72
2021/07/24 01:05:46;;;;;;;13.82;9.55;;;;;;;23.74;48.08;93885.56;4988553;28;20084;-70
2021/07/24 01:08:12;;;;;;;13.63;10.43;;;;;;;23.79;48.10;93887.16;4982776;28;20031;-72
2021/07/24 01:10:38;;;;;;;12.75;10.40;;;;;;;23.75;48.06;93884.41;4985635;28;20441;-72
2021/07/24 01:13:04;;;;;;;12.55;10.88;;;;;;;23.64;47.96;93862.72;4983462;28;20038;-72
2021/07/24 01:15:31;;;;;;;10.98;9.98;;;;;;;23.68;48.19;93887.03;4986939;28;20075;-73
2021/07/24 01:17:56;;;;;;;14.45;11.15;;;;;;;23.70;48.33;93893.59;4983670;28;20031;-72
2021/07/24 01:20:23;;;;;;;13.38;10.77;;;;;;;23.75;47.94;93890.56;4985649;28;20469;-71
2021/07/24 01:22:49;;;;;;;11.65;10.05;;;;;;;23.70;48.28;93885.50;4982947;28;20653;-72
2021/07/24 01:25:14;;;;;;;14.05;10.38;;;;;;;23.40;48.16;93844.31;4987631;28;20049;-71
2021/07/24 01:27:44;;;;;;;11.85;9.23;;;;;;;23.57;48.59;93895.00;4984287;28;20039;-71
2021/07/24 01:30:11;;;;;;;10.13;8.80;;;;;;;23.64;48.21;93883.53;4986656;28;20022;-72
2021/07/24 01:32:37;;;;;;;11.30;10.15;;;;;;;23.57;47.81;93865.31;4986364;28;20121;-72
2021/07/24 01:35:02;;;;;;;10.77;9.68;;;;;;;23.68;47.91;93879.72;4985326;28;20026;-72
2021/07/24 01:37:28;;;;;;;11.00;9.98;;;;;;;23.62;48.08;93880.41;4983093;28;20042;-72
2021/07/24 01:39:53;;;;;;;15.30;10.07;;;;;;;23.60;48.14;93883.47;4982921;28;20034;-71
2021/07/24 01:42:19;;;;;;;11.75;9.45;;;;;;;23.62;48.26;93881.19;4984829;28;20040;-72
2021/07/24 01:44:44;;;;;;;10.18;9.18;;;;;;;23.59;48.14;93887.31;4982834;28;20026;-72
2021/07/24 01:47:09;;;;;;;12.93;9.52;;;;;;;23.50;48.63;93878.75;4986348;28;20378;-72
2021/07/24 01:52:48;;;;;;;10.73;9.75;;;;;;;23.44;48.67;93880.16;4983381;28;20073;-71
2021/07/24 01:55:32;;;;;;;14.10;9.90;;;;;;;23.18;49.19;93861.34;4982885;28;20042;-71
2021/07/24 01:58:02;;;;;;;14.80;10.60;;;;;;;23.24;49.23;93867.97;4983947;28;20095;-73
2021/07/24 02:00:29;;;;;;;11.00;9.90;;;;;;;23.15;49.37;93865.56;4983084;28;20101;-71
2021/07/24 02:02:55;;;;;;;12.02;9.93;;;;;;;23.13;49.21;93853.56;4985428;28;20220;-72
2021/07/24 02:05:32;;;;;;;14.43;9.20;;;;;;;23.20;49.36;93865.25;4983656;28;20497;-72
2021/07/24 02:08:03;;;;;;;12.55;9.80;;;;;;;23.19;49.30;93869.06;4983923;28;20089;-72
2021/07/24 02:10:30;;;;;;;12.13;9.98;;;;;;;23.13;49.50;93858.97;4984071;28;20037;-71
2021/07/24 02:12:55;;;;;;;10.55;9.55;;;;;;;23.06;49.69;93880.44;4985142;28;20046;-72
2021/07/24 02:15:21;;;;;;;10.20;9.10;;;;;;;23.05;49.49;93873.50;4981843;28;20456;-72
2021/07/24 02:17:47;;;;;;;11.60;10.07;;;;;;;22.99;49.57;93861.47;4986151;28;20115;-72
2021/07/24 02:20:18;;;;;;;11.95;9.98;;;;;;;22.98;50.01;93878.78;4982577;28;20045;-72
2021/07/24 02:22:44;;;;;;;11.07;9.98;;;;;;;22.89;50.01;93877.13;4986493;28;20515;-71
2021/07/24 02:25:09;;;;;;;12.80;10.35;;;;;;;22.87;50.16;93876.72;5001333;28;20691;-72
2021/07/24 02:27:35;;;;;;;14.60;10.85;;;;;;;22.83;50.15;93878.59;4983858;28;20051;-72
2021/07/24 02:30:00;;;;;;;11.07;9.75;;;;;;;22.78;50.17;93881.59;4984454;28;20440;-73
2021/07/24 02:32:26;;;;;;;11.27;10.07;;;;;;;22.65;50.51;93880.22;4987241;28;20100;-72
2021/07/24 02:34:51;;;;;;;20.48;9.75;;;;;;;22.31;50.64;93835.44;4989955;28;20037;-73
2021/07/24 02:37:16;;;;;;;12.23;10.10;;;;;;;22.61;50.61;93892.06;4987891;28;20041;-72
2021/07/24 02:39:42;;;;;;;11.75;10.15;;;;;;;22.22;51.23;93870.69;4989201;28;20093;-71
2021/07/24 02:42:07;;;;;;;11.93;9.55;;;;;;;22.19;51.41;93878.69;4986601;28;20041;-72
2021/07/24 02:44:33;;;;;;;11.32;10.15;;;;;;;22.19;51.80;93876.78;4989731;28;20014;-72
2021/07/24 02:46:58;;;;;;;11.88;10.57;;;;;;;22.15;51.87;93881.31;4986748;28;20118;-71
2021/07/24 02:49:23;;;;;;;14.65;10.82;;;;;;;22.21;51.69;93879.13;4989661;28;20046;-71
2021/07/24 02:51:49;;;;;;;11.52;9.80;;;;;;;22.35;51.88;93901.66;4988087;28;20077;-71
2021/07/24 02:54:14;;;;;;;12.52;10.07;;;;;;;22.37;51.43;93899.41;4989578;28;20038;-71
2021/07/24 02:56:40;;;;;;;13.93;11.32;;;;;;;22.39;51.01;93880.19;4988179;28;20262;-72
2021/07/24 02:59:05;;;;;;;14.57;10.85;;;;;;;22.46;51.22;93891.84;4988918;28;20107;-72
2021/07/24 03:01:30;;;;;;;15.65;10.90;;;;;;;22.50;51.17;93896.50;4985925;28;20038;-72
2021/07/24 03:03:56;;;;;;;12.25;10.93;;;;;;;22.43;51.18;93897.19;4986032;28;20048;-72
2021/07/24 03:06:21;;;;;;;11.30;10.13;;;;;;;22.41;51.20;93902.16;4996129;28;20110;-72
2021/07/24 03:08:47;;;;;;;11.40;10.20;;;;;;;22.36;51.18;93899.75;4988224;28;20077;-71
2021/07/24 03:11:12;;;;;;;12.38;11.02;;;;;;;22.33;51.43;93901.25;4989230;28;20038;-72
2021/07/24 03:13:37;;;;;;;13.68;10.75;;;;;;;22.30;51.72;93901.19;4985485;28;20081;-70
2021/07/24 03:16:03;;;;;;;15.10;10.68;;;;;;;22.17;51.84;93883.66;4989232;28;20092;-72
2021/07/24 03:18:28;;;;;;;11.40;10.30;;;;;;;22.22;51.98;93902.22;4988087;28;20725;-72
2021/07/24 03:20:53;;;;;;;13.98;10.60;;;;;;;22.24;51.71;93898.00;4988058;28;20041;-72
2021/07/24 03:23:19;;;;;;;13.05;11.48;;;;;;;22.29;51.61;93895.03;4987978;28;20033;-71
2021/07/24 03:25:44;;;;;;;13.23;11.82;;;;;;;22.35;51.38;93900.88;4986923;28;20672;-72
2021/07/24 03:28:10;;;;;;;14.50;10.82;;;;;;;22.35;51.69;93895.50;4986059;28;20049;-72
2021/07/24 03:30:38;;;;;;;11.07;9.70;;;;;;;22.39;51.21;93901.72;4989352;28;20066;-72
2021/07/24 03:33:03;;;;;;;12.18;10.77;;;;;;;22.39;51.61;93896.34;4987764;28;20462;-72
2021/07/24 03:35:29;;;;;;;11.73;10.63;;;;;;;22.39;51.63;93899.81;4986648;28;20358;-73
2021/07/24 03:37:54;;;;;;;12.40;10.45;;;;;;;22.38;51.49;93909.00;4986502;28;20114;-73
2021/07/24 03:40:20;;;;;;;13.02;9.75;;;;;;;22.44;51.42;93907.59;4989016;28;20042;-72
2021/07/24 03:42:46;;;;;;;10.95;9.85;;;;;;;22.46;51.43;93912.63;4989036;28;20046;-73
2021/07/24 03:45:12;;;;;;;11.10;9.73;;;;;;;22.49;51.19;93909.19;4985673;28;20102;-72
2021/07/24 03:47:37;;;;;;;11.57;10.30;;;;;;;22.40;51.52;93897.91;4986569;28;20042;-72
2021/07/24 03:50:03;;;;;;;12.40;10.45;;;;;;;22.47;51.43;93911.50;4983899;28;20042;-72
2021/07/24 03:52:28;;;;;;;10.43;9.43;;;;;;;22.53;51.44;93914.66;4985625;28;20054;-73
2021/07/24 03:54:53;;;;;;;11.20;9.90;;;;;;;22.62;51.60;93921.34;4983803;28;20278;-72
2021/07/24 03:57:19;;;;;;;11.70;9.93;;;;;;;22.65;51.23;93917.94;4985886;28;20128;-72
2021/07/24 03:59:44;;;;;;;11.80;9.70;;;;;;;22.71;51.17;93923.81;4983303;28;20026;-72
2021/07/24 04:02:13;;;;;;;10.63;9.63;;;;;;;22.46;51.14;93869.53;4987218;28;20096;-73
2021/07/24 04:04:39;;;;;;;11.82;10.30;;;;;;;22.64;51.67;93902.91;4986752;28;20634;-72
2021/07/24 04:07:04;;;;;;;11.77;10.68;;;;;;;22.88;50.23;93916.00;4986439;28;20658;-73
2021/07/24 04:09:32;;;;;;;12.07;10.48;;;;;;;22.97;50.63;93925.75;4988350;28;20053;-72
2021/07/24 04:11:58;;;;;;;10.68;9.48;;;;;;;23.04;50.55;93926.63;4988227;28;20042;-72
2021/07/24 04:14:23;;;;;;;16.65;11.27;;;;;;;23.22;49.57;93929.56;4986397;28;20053;-71
2021/07/24 04:16:49;;;;;;;11.98;10.77;;;;;;;23.19;49.18;93916.81;4984135;28;20038;-73
2021/07/24 04:19:14;;;;;;;14.32;10.55;;;;;;;23.23;49.26;93917.66;4988358;28;20429;-72
2021/07/24 04:21:40;;;;;;;13.60;10.63;;;;;;;23.48;49.06;93937.66;4986169;28;20042;-72
2021/07/24 04:24:05;;;;;;;16.70;11.65;;;;;;;23.60;48.80;93936.66;4984622;28;20042;-72
2021/07/24 04:26:31;;;;;;;15.75;11.10;;;;;;;23.69;48.58;93934.47;4987949;28;20404;-72
2021/07/24 04:28:59;;;;;;;18.02;10.32;;;;;;;23.60;48.28;93929.31;4988668;28;20125;-73
2021/07/24 04:31:25;;;;;;;13.52;10.80;;;;;;;23.72;48.37;93934.50;4986852;28;20042;-71
2021/07/24 04:33:51;;;;;;;14.35;11.30;;;;;;;23.84;47.55;93938.88;4992208;28;20445;-73
2021/07/24 04:36:16;;;;;;;14.52;11.38;;;;;;;23.94;47.34;93940.16;4986075;28;20044;-72
2021/07/24 04:38:42;;;;;;;11.80;10.02;;;;;;;24.00;46.99;93938.66;4987643;28;20444;-72
2021/07/24 04:41:07;;;;;;;13.00;10.55;;;;;;;23.95;47.86;93926.25;4987591;28;20034;-73
2021/07/24 04:43:33;;;;;;;11.77;10.68;;;;;;;24.10;47.16;93932.59;4987750;28;20041;-73
2021/07/24 04:45:58;;;;;;;16.23;10.80;;;;;;;24.01;47.26;93934.81;4984606;28;20038;-72
2021/07/24 04:48:23;;;;;;;13.07;11.23;;;;;;;24.12;47.72;93930.31;4985098;28;20042;-72
2021/07/24 04:50:54;;;;;;;12.68;11.20;;;;;;;24.13;47.10;93937.25;4987460;28;20116;-72
2021/07/24 04:53:20;;;;;;;14.98;11.10;;;;;;;24.07;48.01;93933.34;4987014;28;20042;-73
2021/07/24 04:55:47;;;;;;;15.43;11.10;;;;;;;24.00;48.52;93944.03;4985582;28;20037;-73
2021/07/24 04:58:13;;;;;;;11.90;10.48;;;;;;;24.17;48.07;93943.50;4983844;28;20034;-72
2021/07/24 05:00:42;;;;;;;15.30;10.80;;;;;;;24.25;47.84;93937.00;4980131;28;20053;-72
2021/07/24 05:03:08;;;;;;;13.10;10.60;;;;;;;24.10;47.87;93940.69;4985066;28;20754;-72
2021/07/24 05:05:35;;;;;;;12.77;11.45;;;;;;;24.30;48.16;93950.19;4988076;28;20573;-72
2021/07/24 05:08:02;;;;;;;13.13;11.77;;;;;;;24.22;48.23;93945.88;4991137;28;20042;-72
2021/07/24 05:10:27;;;;;;;18.05;12.00;;;;;;;24.03;48.32;93948.72;4987249;28;20084;-72
2021/07/24 05:12:53;;;;;;;16.05;12.43;;;;;;;24.06;48.68;93937.19;4983725;28;20042;-74
2021/07/24 05:15:18;;;;;;;12.90;11.30;;;;;;;24.21;47.26;93941.63;4987238;28;20568;-72
2021/07/24 05:17:44;;;;;;;16.75;11.55;;;;;;;24.28;47.71;93949.03;4986859;28;20029;-72
2021/07/24 05:20:09;;;;;;;13.43;12.02;;;;;;;24.09;48.30;93947.25;4984951;28;20070;-73
2021/07/24 05:22:35;;;;;;;20.20;11.65;;;;;;;24.08;48.70;93943.00;4983903;28;20939;-72
2021/07/24 05:25:00;;;;;;;14.68;11.57;;;;;;;24.01;48.35;93932.09;4982321;28;20121;-73
2021/07/24 05:27:25;;;;;;;16.10;12.20;;;;;;;24.31;48.63;93940.16;4986441;28;20096;-73
2021/07/24 05:29:51;;;;;;;15.93;11.88;;;;;;;24.14;48.24;93947.69;4985740;28;20030;-73
2021/07/24 05:32:16;;;;;;;16.85;11.63;;;;;;;24.21;47.82;93947.00;4985708;28;20387;-73
2021/07/24 05:34:41;;;;;;;17.20;11.88;;;;;;;24.39;46.71;93942.56;4985956;28;20034;-72
2021/07/24 05:37:07;;;;;;;11.90;10.65;;;;;;;24.44;46.84;93941.44;4983656;28;20511;-73
2021/07/24 05:39:32;;;;;;;19.08;10.43;;;;;;;24.35;47.16;93928.25;4986823;28;20034;-72
2021/07/24 05:41:58;;;;;;;12.93;10.57;;;;;;;24.47;47.42;93941.50;4982158;28;20030;-72
2021/07/24 05:44:23;;;;;;;17.40;10.90;;;;;;;24.64;46.87;93937.38;4984707;28;20401;-72
2021/07/24 05:46:48;;;;;;;14.27;10.95;;;;;;;24.65;46.48;93932.75;4981855;28;20825;-73
2021/07/24 05:49:14;;;;;;;10.50;9.38;;;;;;;24.62;46.26;93942.41;4983007;28;20500;-72
2021/07/24 05:51:39;;;;;;;11.90;9.82;;;;;;;24.49;46.63;93933.78;4984549;28;20042;-74
2021/07/24 05:54:10;;;;;;;12.73;9.00;;;;;;;24.43;46.33;93939.91;4983102;28;20116;-72
2021/07/24 05:56:36;;;;;;;15.20;9.63;;;;;;;24.69;45.97;93944.34;4988066;28;20030;-72
2021/07/24 05:59:02;;;;;;;10.60;9.50;;;;;;;24.78;45.44;93923.19;4983717;28;20053;-72
2021/07/24 06:01:27;;;;;;;10.75;9.30;;;;;;;24.99;45.16;93940.38;4986146;28;20196;-72
2021/07/24 06:03:53;;;;;;;17.08;10.45;;;;;;;25.05;44.88;93938.13;4984615;28;20041;-72
2021/07/24 06:06:18;;;;;;;14.98;9.55;;;;;;;25.02;44.91;93933.47;4987974;28;20030;-72
2021/07/24 06:08:43;;;;;;;16.77;10.75;;;;;;;25.12;44.59;93943.56;4987604;28;20038;-72
2021/07/24 06:11:09;;;;;;;17.02;12.27;;;;;;;25.02;44.73;93945.03;4987999;28;20045;-72
2021/07/24 06:13:34;;;;;;;12.45;10.85;;;;;;;24.88;44.87;93942.22;4985813;28;20185;-72
2021/07/24 06:16:00;;;;;;;12.95;9.93;;;;;;;25.10;44.75;93942.41;4990661;28;20299;-73
2021/07/24 06:18:26;;;;;;;13.88;8.68;;;;;;;25.08;44.44;93948.16;4990019;28;20034;-73
2021/07/24 06:20:51;;;;;;;12.23;9.00;;;;;;;24.93;44.33;93947.28;4988873;28;20041;-72
2021/07/24 06:23:18;;;;;;;11.10;8.05;;;;;;;25.05;44.65;93945.44;4987388;28;20042;-73
2021/07/24 06:25:44;;;;;;;16.58;8.85;;;;;;;24.98;44.63;93943.47;4989710;28;20046;-72
2021/07/24 06:28:10;;;;;;;15.05;9.60;;;;;;;25.13;44.52;93949.75;4988512;28;20046;-73
2021/07/24 06:30:35;;;;;;;18.15;10.63;;;;;;;25.28;44.14;93952.16;4986852;28;20035;-71
2021/07/24 06:33:01;;;;;;;15.32;9.45;;;;;;;25.38;44.04;93946.03;4991815;28;20100;-72
2021/07/24 06:35:26;;;;;;;12.75;8.63;;;;;;;25.31;43.69;93956.84;4987811;28;20414;-72
2021/07/24 06:37:52;;;;;;;12.73;8.65;;;;;;;25.12;44.10;93929.28;4989431;28;20040;-73
2021/07/24 06:40:17;;;;;;;12.60;8.60;;;;;;;25.37;43.81;93949.91;4989890;28;20532;-72
2021/07/24 06:42:43;;;;;;;13.13;9.68;;;;;;;25.60;44.93;93929.97;4988690;28;20045;-72
2021/07/24 06:45:08;;;;;;;11.65;7.97;;;;;;;25.94;43.20;93941.31;4988689;28;20109;-72
2021/07/24 06:47:34;;;;;;;15.45;8.63;;;;;;;25.81;42.89;93941.63;4987764;28;20033;-72
2021/07/24 06:49:59;;;;;;;15.65;8.30;;;;;;;26.03;45.21;93953.34;4987785;28;20050;-72
2021/07/24 06:52:25;;;;;;;13.35;8.43;;;;;;;26.01;43.19;93938.63;4986299;28;20428;-72
2021/07/24 06:54:50;;;;;;;14.20;9.02;;;;;;;26.02;42.48;93946.38;4986394;28;20057;-73
2021/07/24 06:57:15;;;;;;;16.30;9.02;;;;;;;25.92;42.83;93941.69;4988952;28;20046;-73
2021/07/24 06:59:41;;;;;;;11.73;9.02;;;;;;;25.77;44.89;93946.28;4988424;28;20606;-73
2021/07/24 07:02:06;;;;;;;16.20;8.48;;;;;;;26.17;43.11;93936.34;4989802;28;20064;-73
2021/07/24 07:04:32;;;;;;;13.38;8.35;;;;;;;26.30;42.17;93945.69;4983202;28;20061;-72
2021/07/24 07:06:58;;;;;;;12.60;8.30;;;;;;;26.20;43.63;93930.94;4985211;28;20050;-73
2021/07/24 07:09:23;;;;;;;13.07;8.95;;;;;;;26.30;44.52;93935.63;4987112;28;20045;-72
2021/07/24 07:11:49;;;;;;;10.88;8.05;;;;;;;26.17;42.83;93926.28;4985443;28;20033;-72
2021/07/24 07:14:14;;;;;;;13.38;8.98;;;;;;;26.51;42.36;93942.25;4981462;28;20108;-72
2021/07/24 07:16:40;;;;;;;14.80;9.15;;;;;;;26.42;42.01;93920.16;4981756;28;20157;-73
2021/07/24 07:19:06;;;;;;;11.27;8.63;;;;;;;26.46;42.77;93937.19;4984442;28;20037;-73
2021/07/24 07:21:32;;;;;;;11.65;8.65;;;;;;;26.65;41.74;93934.91;4981013;28;20360;-73
2021/07/24 07:23:58;;;;;;;14.95;8.10;;;;;;;26.81;41.46;93931.03;4983218;28;20033;-72
2021/07/24 07:26:25;;;;;;;12.38;8.20;;;;;;;26.85;41.29;93931.81;4982926;28;20022;-72
2021/07/24 07:28:51;;;;;;;11.80;7.85;;;;;;;26.70;41.72;93925.59;4987150;28;20042;-74
2021/07/24 07:31:17;;;;;;;13.20;7.80;;;;;;;26.66;42.02;93935.69;4983355;28;20121;-71
2021/07/24 07:33:43;;;;;;;11.38;8.43;;;;;;;26.60;42.12;93932.56;4986209;28;20065;-73
2021/07/24 07:36:08;;;;;;;13.50;8.35;;;;;;;26.84;42.01;93931.03;4984314;28;20030;-72
2021/07/24 07:38:33;;;;;;;14.18;9.88;;;;;;;26.62;41.70;93929.50;4983925;28;20025;-74
2021/07/24 07:40:59;;;;;;;13.40;8.48;;;;;;;27.06;40.65;93932.63;4984175;28;20492;-73
2021/07/24 07:43:24;;;;;;;12.77;8.68;;;;;;;27.17;40.58;93927.94;4983790;28;20187;-71
2021/07/24 07:45:50;;;;;;;14.95;8.35;;;;;;;27.27;40.91;93914.75;4988022;28;20050;-74
2021/07/24 07:48:15;;;;;;;14.40;8.30;;;;;;;27.37;41.02;93931.00;4980240;28;20505;-72
2021/07/24 07:50:41;;;;;;;13.98;8.13;;;;;;;27.57;39.56;93929.41;4981631;28;20120;-73
2021/07/24 07:53:07;;;;;;;10.52;7.50;;;;;;;27.49;40.27;93932.56;4981404;28;20065;-72
2021/07/24 07:55:33;;;;;;;12.98;9.05;;;;;;;27.45;40.37;93912.75;4981007;28;20754;-73
2021/07/24 07:57:58;;;;;;;13.68;8.30;;;;;;;27.20;41.92;93931.03;4982071;28;20042;-74
2021/07/24 08:00:24;;;;;;;13.60;8.25;;;;;;;27.38;39.40;93937.19;4983455;28;20165;-73
2021/07/24 08:02:54;;;;;;;13.10;8.30;;;;;;;27.45;39.93;93937.19;4982864;28;20038;-72
2021/07/24 08:05:19;;;;;;;13.60;8.07;;;;;;;27.26;39.22;93913.97;4984595;28;20039;-72
2021/07/24 08:07:44;;;;;;;13.23;7.70;;;;;;;27.55;40.38;93925.56;4981650;28;20037;-73
2021/07/24 08:10:10;;;;;;;12.93;8.50;;;;;;;27.46;39.48;93922.47;4980854;28;20041;-71
2021/07/24 08:12:35;;;;;;;12.30;8.63;;;;;;;27.71;39.16;93922.41;4981857;28;20432;-73
2021/07/24 08:15:01;;;;;;;12.30;7.85;;;;;;;27.79;38.64;93918.50;4983553;28;20117;-73
2021/07/24 08:17:26;;;;;;;10.55;7.80;;;;;;;27.80;38.66;93926.25;4982556;28;20042;-73
2021/07/24 08:19:52;;;;;;;10.30;7.57;;;;;;;27.58;37.97;93909.25;4984500;28;20045;-73
2021/07/24 08:22:17;;;;;;;12.57;6.97;;;;;;;27.57;37.92;93923.22;4984660;28;20034;-73
2021/07/24 08:24:43;;;;;;;8.00;7.20;;;;;;;27.59;38.37;93923.59;4984246;28;20096;-73
2021/07/24 08:27:08;;;;;;;9.93;7.25;;;;;;;27.85;38.12;93909.56;4985279;28;20060;-74
2021/07/24 08:29:34;;;;;;;10.48;7.32;;;;;;;27.75;37.71;93913.09;4983052;28;20138;-72
2021/07/24 08:31:59;;;;;;;11.93;7.55;;;;;;;27.82;37.69;93915.75;4982568;28;20034;-72
2021/07/24 08:34:25;;;;;;;9.95;6.80;;;;;;;27.99;37.70;93923.06;4980101;28;20349;-71
2021/07/24 08:36:50;;;;;;;10.05;6.60;;;;;;;28.09;36.94;93910.59;4980641;28;20053;-72
2021/07/24 08:39:16;;;;;;;6.82;6.05;;;;;;;28.10;36.80;93914.84;4969150;28;20999;-72
2021/07/24 08:41:41;;;;;;;11.95;6.15;;;;;;;28.09;36.58;93907.09;4980289;28;20057;-72
2021/07/24 08:44:10;;;;;;;11.90;5.90;;;;;;;28.25;37.17;93910.13;4981727;28;20035;-73
2021/07/24 08:46:35;;;;;;;8.02;5.85;;;;;;;28.31;36.24;93913.97;4983155;28;20548;-73
2021/07/24 08:49:01;;;;;;;11.48;6.38;;;;;;;28.10;36.54;93905.94;4983682;28;20042;-73
2021/07/24 08:51:30;;;;;;;8.60;6.22;;;;;;;28.14;36.24;93907.50;4983770;28;20535;-73
2021/07/24 08:53:57;;;;;;;9.25;6.70;;;;;;;28.05;36.23;93909.84;4982469;28;20030;-72
2021/07/24 08:56:26;;;;;;;8.52;7.22;;;;;;;28.08;36.75;93909.03;4985442;28;20027;-73
2021/07/24 08:58:56;;;;;;;9.45;6.07;;;;;;;28.32;36.54;93912.81;4982260;28;20157;-73
2021/07/24 09:01:22;;;;;;;12.70;6.40;;;;;;;28.23;36.13;93909.78;4984850;28;20045;-72
2021/07/24 09:03:49;;;;;;;7.65;6.38;;;;;;;27.82;36.00;93910.31;4982356;28;20385;-71
2021/07/24 09:06:22;;;;;;;8.05;7.28;;;;;;;27.67;36.07;93916.19;4983760;28;20042;-72
2021/07/24 09:08:50;;;;;;;12.30;7.67;;;;;;;27.74;36.09;93911.53;4984390;28;20447;-73
2021/07/24 09:11:16;;;;;;;8.77;6.30;;;;;;;27.59;35.73;93912.75;4982757;28;20272;-73
2021/07/24 09:13:42;;;;;;;8.98;6.38;;;;;;;27.81;36.38;93905.28;4981861;28;20411;-70
2021/07/24 09:16:08;;;;;;;9.18;6.20;;;;;;;28.02;36.33;93911.41;4984200;28;20045;-74
2021/07/24 09:18:34;;;;;;;11.43;6.05;;;;;;;28.34;35.97;93915.91;4983854;28;20069;-73
2021/07/24 09:21:00;;;;;;;8.07;6.53;;;;;;;28.28;36.17;93918.28;4985141;28;20500;-72
2021/07/24 09:23:33;;;;;;;9.48;5.75;;;;;;;28.51;34.97;93915.03;4985238;28;20066;-73
2021/07/24 09:25:58;;;;;;;8.57;6.40;;;;;;;28.54;34.93;93914.22;4983066;28;20046;-74
2021/07/24 09:28:24;;;;;;;8.02;6.97;;;;;;;28.66;34.90;93924.63;4983971;28;20045;-73
2021/07/24 09:30:50;;;;;;;8.32;7.13;;;;;;;28.54;34.11;93918.91;4984807;28;20038;-72
2021/07/24 09:33:18;;;;;;;10.15;6.60;;;;;;;28.31;33.95;93908.53;4984009;28;20053;-73
2021/07/24 09:35:51;;;;;;;10.82;6.57;;;;;;;28.32;34.33;93913.59;4984132;28;20407;-73
2021/07/24 09:38:27;;;;;;;9.07;7.28;;;;;;;27.98;34.99;93918.03;4986615;28;20049;-73
2021/07/24 09:40:53;;;;;;;10.50;6.57;;;;;;;27.96;35.23;93918.41;4973251;28;20780;-73
2021/07/24 09:43:40;;;;;;;10.18;5.63;;;;;;;27.60;36.67;93916.25;4985884;28;20081;-73
2021/07/24 09:46:16;;;;;;;12.10;6.68;;;;;;;27.76;37.68;93925.47;4982895;28;20042;-73
2021/07/24 09:48:47;;;;;;;9.02;5.50;;;;;;;27.57;38.13;93934.84;4984170;28;20492;-72
2021/07/24 09:51:14;;;;;;;11.50;5.30;;;;;;;27.22;39.07;93934.16;4983082;28;20052;-72
2021/07/24 09:53:40;;;;;;;12.45;6.25;;;;;;;27.13;39.58;93939.94;4979908;28;20382;-74
2021/07/24 09:56:07;;;;;;;8.32;5.35;;;;;;;27.06;39.58;93939.97;4983415;28;20485;-71
2021/07/24 09:58:32;;;;;;;9.50;4.97;;;;;;;27.23;39.77;93941.88;4981151;28;20026;-71
2021/07/24 10:01:06;;;;;;;9.15;4.72;;;;;;;27.44;39.95;93947.28;4982448;28;20074;-72
2021/07/24 10:03:35;;;;;;;14.15;5.32;;;;;;;27.21;40.50;93946.94;4979331;28;20045;-73
2021/07/24 10:06:08;;;;;;;8.25;4.68;;;;;;;27.37;39.57;93935.63;4983197;28;21127;-71
2021/07/24 10:08:36;;;;;;;7.57;5.10;;;;;;;27.09;39.58;93956.22;4978837;28;20144;-72
2021/07/24 10:11:02;;;;;;;7.15;5.82;;;;;;;26.48;40.96;93951.16;4979496;28;20050;-73
2021/07/24 10:13:27;;;;;;;8.80;5.80;;;;;;;26.34;41.19;93945.72;4978907;28;20179;-73
2021/07/24 10:15:53;;;;;;;9.00;5.40;;;;;;;26.41;41.06;93968.16;4983320;28;20045;-72
2021/07/24 10:18:19;;;;;;;5.93;5.30;;;;;;;26.22;41.53;93955.75;4981550;28;21022;-72
2021/07/24 10:20:47;;;;;;;9.35;6.88;;;;;;;26.36;40.17;93967.75;4983663;28;20028;-73
2021/07/24 10:23:13;;;;;;;9.68;6.22;;;;;;;26.23;39.52;93976.25;4982603;28;20174;-70
2021/07/24 10:26:09;;;;;;;9.98;6.70;;;;;;;25.98;39.92;93972.66;4984358;28;20137;-72
2021/07/24 10:28:55;;;;;;;8.60;6.13;;;;;;;26.01;40.29;93960.28;4976753;28;20108;-72
2021/07/24 10:31:25;;;;;;;6.75;5.80;;;;;;;26.19;40.65;93966.53;4982660;28;20316;-73
2021/07/24 10:33:56;;;;;;;9.50;7.28;;;;;;;26.46;41.30;93975.16;4981825;28;20409;-71
2021/07/24 10:36:42;;;;;;;9.93;7.60;;;;;;;26.77;42.00;93976.34;4982329;28;20120;-73
2021/07/24 10:39:17;;;;;;;7.93;6.70;;;;;;;26.65;41.63;93967.44;4981330;28;20029;-72
2021/07/24 10:41:47;;;;;;;7.93;6.40;;;;;;;27.01;43.70;93967.47;4982654;28;20105;-74
2021/07/24 10:44:33;;;;;;;9.80;7.13;;;;;;;27.02;39.80;93958.19;4980038;28;20158;-73
2021/07/24 10:47:04;;;;;;;11.00;6.97;;;;;;;26.96;39.61;93960.50;4983444;28;20080;-73
2021/07/24 10:49:33;;;;;;;6.57;5.85;;;;;;;27.02;42.21;93958.19;4978788;28;20046;-72
2021/07/24 10:52:00;;;;;;;7.65;5.88;;;;;;;27.29;40.30;93955.81;4983148;28;20096;-73
2021/07/24 10:54:27;;;;;;;9.77;6.63;;;;;;;27.60;39.42;93965.88;4984312;28;20038;-73
2021/07/24 10:56:52;;;;;;;9.88;6.47;;;;;;;27.73;39.56;93949.94;4984456;28;20890;-73
2021/07/24 10:59:30;;;;;;;6.85;5.40;;;;;;;27.78;37.52;93960.38;4984859;28;20062;-73
2021/07/24 11:01:57;;;;;;;11.65;6.15;;;;;;;27.92;38.28;93966.53;4983528;28;20153;-73
2021/07/24 11:04:43;;;;;;;7.63;5.70;;;;;;;28.08;37.75;93963.38;4985281;28;20057;-73
2021/07/24 11:07:21;;;;;;;11.27;5.68;;;;;;;28.06;37.18;93970.38;4984923;28;20200;-71
2021/07/24 11:09:52;;;;;;;6.50;5.80;;;;;;;27.83;36.66;93968.91;4982066;28;20058;-73
2021/07/24 11:12:32;;;;;;;9.90;6.43;;;;;;;27.80;37.40;93975.13;4982067;28;20038;-72
2021/07/24 11:14:58;;;;;;;8.05;5.22;;;;;;;27.91;37.52;93967.69;5001984;28;20036;-71
2021/07/24 11:17:24;;;;;;;7.07;5.85;;;;;;;27.96;37.17;93971.94;4986293;28;20022;-72
2021/07/24 11:19:49;;;;;;;6.45;5.13;;;;;;;27.88;35.93;93967.72;4984342;28;20109;-73
2021/07/24 11:22:16;;;;;;;9.25;5.72;;;;;;;28.07;35.88;93972.69;4979892;28;20041;-72
2021/07/24 11:24:44;;;;;;;12.95;5.88;;;;;;;28.14;38.24;93961.06;4992126;28;20050;-74
2021/07/24 11:27:10;;;;;;;7.28;5.75;;;;;;;28.31;37.83;93960.19;4982429;28;20026;-72